createdAt,value
2017-10-01T00:24:47.571Z,38.78
2017-10-01T00:27:15.152Z,24.10
2017-10-01T00:29:42.742Z,26.23
2017-10-01T00:32:10.360Z,29.55
2017-10-01T00:34:38.680Z,24.33
2017-10-01T00:37:06.284Z,21.50
2017-10-01T00:39:33.852Z,22.15
2017-10-01T00:42:01.421Z,26.62
2017-10-01T00:44:28.999Z,29.42
2017-10-01T00:46:56.594Z,20.02
2017-10-01T00:49:24.180Z,25.25
2017-10-01T00:51:51.855Z,23.65
2017-10-01T00:54:19.404Z,35.53
2017-10-01T00:56:46.998Z,22.00
2017-10-01T00:59:15.331Z,24.73
2017-10-01T01:01:42.890Z,19.52
2017-10-01T01:04:10.488Z,25.37
2017-10-01T01:06:38.059Z,18.65
2017-10-01T01:09:06.416Z,25.33
2017-10-01T01:11:33.979Z,19.77
2017-10-01T01:14:01.562Z,18.45
2017-10-01T01:16:29.902Z,23.55
2017-10-01T01:18:57.652Z,22.58
2017-10-01T01:21:25.233Z,22.58
2017-10-01T01:23:52.782Z,24.23
2017-10-01T01:42:11.859Z,22.58
2017-10-01T01:44:39.515Z,28.02
2017-10-01T01:47:07.071Z,26.45
2017-10-01T01:49:34.646Z,23.40
2017-10-01T01:52:02.210Z,19.23
2017-10-01T01:54:29.770Z,19.35
2017-10-01T01:56:57.355Z,20.48
2017-10-01T01:59:24.931Z,23.17
2017-10-01T02:01:52.535Z,19.98
2017-10-01T02:04:20.093Z,16.77
2017-10-01T02:06:47.683Z,14.77
2017-10-01T02:09:15.262Z,22.13
2017-10-01T02:11:42.838Z,23.52
2017-10-01T02:14:10.413Z,24.77
2017-10-01T02:16:37.999Z,17.77
2017-10-01T02:19:05.594Z,24.25
2017-10-01T02:21:33.146Z,23.17
2017-10-01T02:24:00.770Z,18.02
2017-10-01T02:26:29.091Z,24.30
2017-10-01T02:28:56.684Z,15.55
2017-10-01T02:31:24.228Z,23.55
2017-10-01T02:33:51.810Z,18.60
2017-10-01T02:36:20.144Z,15.20
2017-10-01T02:38:47.709Z,21.33
2017-10-01T02:41:15.270Z,16.90
2017-10-01T02:43:42.839Z,21.50
2017-10-01T02:46:10.415Z,15.07
2017-10-01T02:48:37.992Z,18.00
2017-10-01T02:51:05.547Z,23.00
2017-10-01T02:53:33.179Z,22.37
2017-10-01T02:56:00.855Z,18.73
2017-10-01T02:58:28.455Z,20.67
2017-10-01T03:00:56.772Z,22.17
2017-10-01T03:03:24.359Z,23.35
2017-10-01T03:05:51.936Z,30.23
2017-10-01T03:08:19.472Z,23.90
2017-10-01T03:10:47.042Z,34.25
2017-10-01T03:13:14.640Z,28.48
2017-10-01T03:15:42.972Z,22.87
2017-10-01T03:18:10.543Z,25.27
2017-10-01T03:20:38.129Z,22.37
2017-10-01T03:23:05.694Z,22.83
2017-10-01T03:25:33.275Z,29.60
2017-10-01T03:28:00.825Z,26.30
2017-10-01T03:30:28.422Z,23.70
2017-10-01T03:32:55.991Z,20.35
2017-10-01T03:35:23.727Z,26.12
2017-10-01T03:37:51.299Z,23.80
2017-10-01T03:40:19.702Z,27.75
2017-10-01T03:42:47.294Z,20.45
2017-10-01T03:45:14.882Z,21.65
2017-10-01T03:47:43.351Z,24.65
2017-10-01T03:50:10.920Z,22.35
2017-10-01T03:52:38.544Z,23.83
2017-10-01T03:55:33.687Z,22.67
2017-10-01T03:58:02.039Z,21.77
2017-10-01T04:00:29.594Z,28.12
2017-10-01T04:02:57.159Z,29.75
2017-10-01T04:05:24.743Z,23.48
2017-10-01T04:07:52.334Z,25.58
2017-10-01T04:10:20.670Z,23.87
2017-10-01T04:12:48.241Z,23.33
2017-10-01T04:15:15.997Z,21.42
2017-10-01T04:17:43.687Z,22.25
2017-10-01T04:20:12.030Z,21.95
2017-10-01T04:22:57.757Z,17.50
2017-10-01T04:25:26.102Z,20.73
2017-10-01T04:27:54.626Z,25.50
2017-10-01T04:30:22.186Z,33.08
2017-10-01T04:32:49.764Z,27.20
2017-10-01T04:35:18.116Z,25.37
2017-10-01T04:37:45.670Z,23.15
2017-10-01T04:40:13.271Z,22.80
2017-10-01T04:42:41.600Z,22.02
2017-10-01T04:45:09.288Z,25.88
2017-10-01T04:47:36.870Z,20.60
2017-10-01T04:50:05.219Z,30.30
2017-10-01T04:52:33.765Z,22.67
2017-10-01T04:55:01.410Z,24.02
2017-10-01T04:57:28.982Z,21.62
2017-10-01T04:59:56.547Z,22.42
2017-10-01T05:02:24.121Z,28.60
2017-10-01T05:04:51.682Z,22.10
2017-10-01T05:07:19.273Z,23.85
2017-10-01T05:09:46.842Z,21.92
2017-10-01T05:12:14.406Z,22.92
2017-10-01T05:14:42.011Z,17.98
2017-10-01T05:17:10.521Z,17.67
2017-10-01T05:19:38.095Z,17.95
2017-10-01T05:22:05.692Z,21.27
2017-10-01T05:24:50.275Z,22.95
2017-10-01T05:27:17.871Z,20.67
2017-10-01T05:29:45.437Z,18.75
2017-10-01T05:32:13.035Z,17.62
2017-10-01T05:34:40.649Z,18.77
2017-10-01T05:37:08.218Z,22.77
2017-10-01T05:39:35.798Z,18.85
2017-10-01T05:42:03.380Z,13.82
2017-10-01T05:44:30.945Z,17.62
2017-10-01T05:46:59.293Z,14.05
2017-10-01T05:49:26.858Z,13.68
2017-10-01T05:51:54.446Z,15.02
2017-10-01T05:54:22.794Z,11.25
2017-10-01T05:56:50.416Z,12.93
2017-10-01T05:59:18.753Z,20.80
2017-10-01T06:01:46.387Z,17.87
2017-10-01T06:04:14.020Z,12.02
2017-10-01T06:06:42.380Z,14.13
2017-10-01T06:09:09.974Z,15.55
2017-10-01T06:11:38.308Z,10.80
2017-10-01T06:14:05.879Z,10.83
2017-10-01T06:16:33.470Z,13.90
2017-10-01T06:19:01.770Z,9.17
2017-10-01T06:21:29.358Z,11.80
2017-10-01T06:23:56.934Z,9.47
2017-10-01T06:26:24.524Z,9.23
2017-10-01T06:28:52.887Z,8.38
2017-10-01T06:31:20.529Z,9.90
2017-10-01T06:33:48.093Z,10.03
2017-10-01T06:36:15.683Z,10.60
2017-10-01T06:38:44.015Z,8.10
2017-10-01T06:41:11.581Z,11.67
2017-10-01T06:43:39.142Z,9.43
2017-10-01T06:46:06.729Z,12.13
2017-10-01T06:48:34.298Z,15.43
2017-10-01T06:51:01.899Z,13.10
2017-10-01T06:53:30.244Z,11.33
2017-10-01T06:55:57.801Z,9.50
2017-10-01T06:58:25.386Z,18.43
2017-10-01T07:00:53.703Z,15.83
2017-10-01T07:03:21.297Z,12.30
2017-10-01T07:05:48.845Z,8.00
2017-10-01T07:08:16.441Z,10.00
2017-10-01T07:10:44.793Z,8.05
2017-10-01T07:13:12.468Z,11.07
2017-10-01T07:15:40.047Z,10.10
2017-10-01T07:18:07.626Z,8.33
2017-10-01T07:20:35.945Z,10.17
2017-10-01T07:23:03.523Z,9.43
2017-10-01T07:25:31.870Z,8.70
2017-10-01T07:27:59.457Z,10.20
2017-10-01T07:30:27.023Z,11.53
2017-10-01T07:32:54.624Z,8.30
2017-10-01T07:35:23.020Z,8.57
2017-10-01T07:37:50.614Z,10.10
2017-10-01T07:40:18.280Z,10.33
2017-10-01T07:42:45.850Z,7.77
2017-10-01T07:45:13.526Z,9.30
2017-10-01T07:47:41.091Z,19.23
2017-10-01T07:50:08.668Z,15.73
2017-10-01T07:52:36.230Z,11.37
2017-10-01T07:55:04.726Z,11.70
2017-10-01T07:57:33.185Z,7.00
2017-10-01T08:00:00.770Z,9.37
2017-10-01T08:02:29.145Z,10.23
2017-10-01T08:04:57.477Z,9.20
2017-10-01T08:07:25.038Z,12.10
2017-10-01T08:09:53.440Z,12.23
2017-10-01T08:12:21.026Z,8.30
2017-10-01T08:14:49.379Z,10.87
2017-10-01T08:17:17.737Z,8.93
2017-10-01T08:19:45.395Z,12.40
2017-10-01T08:22:24.066Z,8.43
2017-10-01T08:24:52.432Z,13.20
2017-10-01T08:27:20.014Z,9.00
2017-10-01T08:29:48.346Z,11.20
2017-10-01T08:32:15.938Z,8.90
2017-10-01T08:34:44.290Z,11.53
2017-10-01T08:37:11.887Z,10.40
2017-10-01T08:39:39.885Z,8.30
2017-10-01T08:42:07.462Z,8.23
2017-10-01T08:44:35.042Z,9.90
2017-10-01T08:47:02.633Z,6.43
2017-10-01T08:49:30.198Z,9.17
2017-10-01T08:52:07.970Z,7.03
2017-10-01T08:54:35.532Z,12.10
2017-10-01T08:57:13.256Z,5.80
2017-10-01T08:59:40.829Z,5.10
2017-10-01T09:02:09.189Z,17.77
2017-10-01T09:04:36.767Z,8.63
2017-10-01T09:07:05.124Z,7.17
2017-10-01T09:09:32.708Z,8.27
2017-10-01T09:12:00.284Z,7.20
2017-10-01T09:14:28.647Z,4.27
2017-10-01T09:16:56.367Z,6.63
2017-10-01T09:19:23.942Z,6.50
2017-10-01T09:21:51.540Z,5.20
2017-10-01T09:24:19.876Z,6.30
2017-10-01T09:26:47.445Z,7.33
2017-10-01T09:29:15.177Z,11.00
2017-10-01T09:31:42.751Z,3.67
2017-10-01T09:34:10.332Z,6.03
2017-10-01T09:36:37.908Z,6.03
2017-10-01T09:39:05.462Z,4.90
2017-10-01T09:41:33.170Z,7.47
2017-10-01T09:44:01.550Z,6.27
2017-10-01T09:46:29.914Z,4.90
2017-10-01T09:48:57.519Z,7.27
2017-10-01T09:51:25.110Z,5.00
2017-10-01T09:53:52.713Z,4.53
2017-10-01T09:56:21.075Z,5.60
2017-10-01T09:58:48.651Z,4.43
2017-10-01T10:01:16.993Z,12.60
2017-10-01T10:03:44.566Z,6.67
2017-10-01T10:06:12.155Z,10.67
2017-10-01T10:08:40.495Z,8.40
2017-10-01T10:11:08.097Z,7.60
2017-10-01T10:13:36.461Z,8.37
2017-10-01T10:16:04.031Z,6.13
2017-10-01T10:18:31.632Z,6.80
2017-10-01T10:20:59.225Z,8.47
2017-10-01T10:23:26.830Z,4.87
2017-10-01T10:25:55.158Z,7.40
2017-10-01T10:28:22.719Z,9.67
2017-10-01T10:30:50.307Z,13.60
2017-10-01T10:33:17.879Z,4.90
2017-10-01T10:35:45.462Z,4.80
2017-10-01T10:38:13.789Z,3.97
2017-10-01T10:40:41.350Z,7.00
2017-10-01T10:43:08.959Z,9.43
2017-10-01T10:45:36.518Z,7.03
2017-10-01T10:48:04.845Z,6.23
2017-10-01T10:50:32.428Z,5.40
2017-10-01T10:53:00.010Z,6.20
2017-10-01T10:55:27.781Z,7.90
2017-10-01T10:57:55.362Z,5.13
2017-10-01T11:00:23.681Z,5.33
2017-10-01T11:02:51.257Z,6.53
2017-10-01T11:05:18.867Z,8.30
2017-10-01T11:07:47.239Z,8.30
2017-10-01T11:10:14.829Z,7.40
2017-10-01T11:12:42.418Z,6.00
2017-10-01T11:15:09.986Z,8.27
2017-10-01T11:17:37.567Z,6.97
2017-10-01T11:20:05.118Z,4.97
2017-10-01T11:22:32.707Z,8.67
2017-10-01T11:25:00.266Z,5.13
2017-10-01T11:27:28.617Z,9.80
2017-10-01T11:29:56.178Z,7.10
2017-10-01T11:32:23.749Z,6.17
2017-10-01T11:34:51.365Z,9.80
2017-10-01T11:37:19.687Z,3.57
2017-10-01T11:39:47.257Z,6.33
2017-10-01T11:42:14.834Z,8.97
2017-10-01T11:44:42.393Z,7.40
2017-10-01T11:47:10.155Z,10.67
2017-10-01T11:49:37.722Z,3.20
2017-10-01T11:52:05.288Z,6.80
2017-10-01T11:54:32.865Z,8.43
2017-10-01T11:57:01.285Z,5.30
2017-10-01T11:59:28.853Z,3.40
2017-10-01T12:01:56.414Z,6.33
2017-10-01T12:04:24.782Z,10.93
2017-10-01T12:06:53.126Z,11.23
2017-10-01T12:09:20.712Z,5.83
2017-10-01T12:11:49.042Z,6.20
2017-10-01T12:14:16.627Z,6.30
2017-10-01T12:16:44.198Z,3.17
2017-10-01T12:19:11.769Z,5.20
2017-10-01T12:21:40.128Z,7.70
2017-10-01T12:24:07.699Z,8.50
2017-10-01T12:26:35.308Z,5.50
2017-10-01T12:29:02.878Z,6.90
2017-10-01T12:31:30.483Z,6.67
2017-10-01T12:33:58.075Z,6.17
2017-10-01T12:36:26.421Z,8.50
2017-10-01T12:38:54.024Z,11.57
2017-10-01T12:41:21.584Z,4.53
2017-10-01T12:43:49.970Z,4.00
2017-10-01T12:46:17.564Z,5.60
2017-10-01T12:48:45.145Z,7.60
2017-10-01T12:51:12.720Z,5.90
2017-10-01T12:53:40.283Z,10.77
2017-10-01T12:56:07.892Z,4.20
2017-10-01T12:58:35.464Z,12.40
2017-10-01T13:01:03.066Z,3.90
2017-10-01T13:03:30.717Z,9.33
2017-10-01T13:05:58.455Z,6.73
2017-10-01T13:08:26.038Z,7.47
2017-10-01T13:10:53.604Z,4.97
2017-10-01T13:13:21.188Z,7.63
2017-10-01T13:15:48.756Z,8.53
2017-10-01T13:18:16.319Z,8.20
2017-10-01T13:20:43.919Z,6.43
2017-10-01T13:23:11.567Z,6.20
2017-10-01T13:25:39.906Z,8.00
2017-10-01T13:28:07.525Z,5.43
2017-10-01T13:30:35.123Z,4.07
2017-10-01T13:33:02.733Z,6.87
2017-10-01T13:35:31.106Z,6.07
2017-10-01T13:37:59.471Z,7.27
2017-10-01T13:40:27.056Z,5.17
2017-10-01T13:42:55.408Z,5.30
2017-10-01T13:45:22.966Z,6.13
2017-10-01T13:47:50.555Z,2.50
2017-10-01T13:50:18.286Z,9.20
2017-10-01T13:52:45.851Z,6.23
2017-10-01T13:55:13.520Z,6.67
2017-10-01T13:57:41.126Z,4.97
2017-10-01T14:00:08.715Z,8.93
2017-10-01T14:02:36.310Z,7.50
2017-10-01T14:05:09.586Z,5.90
2017-10-01T14:07:37.185Z,6.63
2017-10-01T14:10:04.784Z,10.63
2017-10-01T14:12:32.470Z,7.93
2017-10-01T14:15:00.072Z,8.63
2017-10-01T14:17:28.447Z,4.97
2017-10-01T14:19:56.826Z,6.43
2017-10-01T14:22:24.479Z,6.20
2017-10-01T14:24:52.196Z,5.83
2017-10-01T14:27:19.840Z,5.13
2017-10-01T14:29:48.183Z,3.20
2017-10-01T14:32:15.763Z,6.87
2017-10-01T14:34:43.927Z,6.80
2017-10-01T14:37:11.492Z,7.50
2017-10-01T14:39:39.063Z,9.37
2017-10-01T14:42:06.642Z,3.97
2017-10-01T14:44:34.979Z,5.63
2017-10-01T14:47:02.827Z,6.47
2017-10-01T14:49:30.400Z,11.13
2017-10-01T14:51:57.977Z,6.60
2017-10-01T14:54:25.669Z,7.03
2017-10-01T14:56:53.229Z,6.10
2017-10-01T14:59:20.813Z,5.37
2017-10-01T15:01:49.153Z,10.33
2017-10-01T15:04:16.714Z,7.40
2017-10-01T15:06:44.302Z,4.13
2017-10-01T15:09:12.638Z,8.70
2017-10-01T15:11:40.236Z,7.60
2017-10-01T15:14:07.850Z,9.00
2017-10-01T15:16:35.430Z,8.87
2017-10-01T15:19:03.042Z,5.77
2017-10-01T15:21:31.454Z,7.67
2017-10-01T15:23:59.033Z,4.90
2017-10-01T15:26:26.597Z,7.63
2017-10-01T15:28:54.343Z,11.10
2017-10-01T15:31:22.024Z,7.10
2017-10-01T15:33:49.599Z,6.30
2017-10-01T15:36:17.184Z,6.53
2017-10-01T15:38:44.757Z,7.33
2017-10-01T15:41:12.344Z,5.60
2017-10-01T15:43:40.886Z,5.07
2017-10-01T15:46:09.392Z,6.77
2017-10-01T15:48:36.996Z,7.93
2017-10-01T15:51:04.580Z,6.87
2017-10-01T15:53:32.932Z,8.30
2017-10-01T15:56:00.489Z,5.20
2017-10-01T15:58:28.092Z,8.97
2017-10-01T16:00:55.661Z,7.40
2017-10-01T16:03:23.215Z,7.53
2017-10-01T16:05:51.567Z,7.83
2017-10-01T16:08:19.162Z,8.87
2017-10-01T16:10:47.649Z,8.03
2017-10-01T16:13:15.267Z,13.63
2017-10-01T16:15:42.829Z,8.00
2017-10-01T16:18:10.402Z,9.13
2017-10-01T16:20:38.774Z,5.77
2017-10-01T16:23:06.339Z,6.53
2017-10-01T16:25:33.951Z,8.80
2017-10-01T16:28:01.562Z,8.73
2017-10-01T16:30:29.325Z,5.67
2017-10-01T16:32:57.157Z,16.70
2017-10-01T16:35:25.177Z,8.33
2017-10-01T16:37:53.742Z,7.73
2017-10-01T16:40:21.463Z,6.60
2017-10-01T16:42:49.057Z,18.93
2017-10-01T16:45:16.941Z,6.53
2017-10-01T16:47:44.759Z,5.33
2017-10-01T16:50:12.510Z,5.57
2017-10-01T16:52:41.908Z,8.50
2017-10-01T16:55:10.476Z,6.20
2017-10-01T16:57:38.270Z,8.03
2017-10-01T17:00:06.710Z,8.13
2017-10-01T17:02:35.080Z,10.83
2017-10-01T17:05:02.648Z,6.83
2017-10-01T17:07:30.386Z,13.13
2017-10-01T17:09:58.112Z,9.23
2017-10-01T17:12:26.521Z,9.27
2017-10-01T17:14:54.176Z,8.33
2017-10-01T17:17:21.846Z,13.97
2017-10-01T17:19:49.489Z,7.80
2017-10-01T17:22:17.245Z,7.00
2017-10-01T17:24:44.879Z,8.43
2017-10-01T17:27:12.470Z,6.57
2017-10-01T17:29:40.813Z,7.90
2017-10-01T17:32:08.597Z,15.40
2017-10-01T17:34:36.318Z,6.63
2017-10-01T17:37:03.900Z,10.50
2017-10-01T17:39:31.478Z,8.47
2017-10-01T17:41:59.081Z,12.07
2017-10-01T17:44:27.461Z,11.40
2017-10-01T17:46:55.852Z,10.23
2017-10-01T17:49:24.274Z,11.10
2017-10-01T17:51:51.943Z,10.30
2017-10-01T17:54:19.545Z,7.87
2017-10-01T17:56:47.881Z,16.80
2017-10-01T17:59:15.478Z,6.53
2017-10-01T18:01:43.826Z,7.43
2017-10-01T18:04:11.405Z,11.97
2017-10-01T18:06:39.752Z,10.60
2017-10-01T18:09:07.332Z,4.77
2017-10-01T18:11:34.939Z,9.93
2017-10-01T18:14:03.296Z,8.03
2017-10-01T18:16:30.918Z,8.57
2017-10-01T18:18:58.521Z,8.63
2017-10-01T18:21:26.897Z,9.17
2017-10-01T18:23:55.286Z,9.77
2017-10-01T18:26:23.639Z,7.60
2017-10-01T18:28:51.236Z,6.83
2017-10-01T18:31:19.591Z,9.67
2017-10-01T18:33:47.170Z,18.83
2017-10-01T18:36:15.537Z,5.30
2017-10-01T18:38:43.187Z,9.67
2017-10-01T18:41:10.762Z,10.23
2017-10-01T18:43:38.366Z,8.53
2017-10-01T18:46:05.975Z,7.97
2017-10-01T18:48:33.653Z,6.83
2017-10-01T18:51:01.365Z,8.23
2017-10-01T18:53:29.026Z,7.90
2017-10-01T18:55:56.629Z,4.83
2017-10-01T18:58:24.249Z,8.60
2017-10-01T19:00:51.826Z,7.43
2017-10-01T19:03:19.526Z,14.23
2017-10-01T19:05:47.121Z,11.57
2017-10-01T19:08:15.485Z,8.10
2017-10-01T19:10:43.958Z,5.70
2017-10-01T19:13:11.610Z,9.40
2017-10-01T19:15:40.050Z,7.30
2017-10-01T19:18:07.637Z,9.50
2017-10-01T19:20:35.213Z,6.60
2017-10-01T19:23:02.896Z,8.77
2017-10-01T19:25:31.225Z,8.07
2017-10-01T19:27:58.812Z,5.80
2017-10-01T19:30:26.676Z,9.33
2017-10-01T19:32:54.276Z,7.07
2017-10-01T19:35:22.652Z,7.40
2017-10-01T19:37:51.073Z,6.57
2017-10-01T19:40:18.743Z,14.40
2017-10-01T19:42:46.352Z,9.07
2017-10-01T19:45:14.741Z,7.10
2017-10-01T19:47:42.342Z,7.20
2017-10-01T19:50:09.930Z,14.00
2017-10-01T19:52:37.590Z,10.07
2017-10-01T19:55:05.319Z,9.03
2017-10-01T19:57:33.638Z,6.63
2017-10-01T20:00:01.290Z,8.63
2017-10-01T20:02:29.024Z,7.23
2017-10-01T20:04:57.387Z,14.73
2017-10-01T20:07:25.733Z,13.53
2017-10-01T20:09:53.375Z,10.33
2017-10-01T20:12:20.979Z,5.63
2017-10-01T20:14:48.682Z,10.47
2017-10-01T20:17:17.145Z,6.90
2017-10-01T20:19:44.741Z,6.40
2017-10-01T20:22:12.319Z,7.00
2017-10-01T20:24:39.923Z,7.40
2017-10-01T20:27:07.514Z,7.53
2017-10-01T20:29:35.945Z,7.03
2017-10-01T20:32:03.651Z,4.97
2017-10-01T20:34:31.481Z,6.53
2017-10-01T20:36:59.183Z,5.63
2017-10-01T20:39:27.691Z,11.00
2017-10-01T20:41:55.272Z,6.70
2017-10-01T20:44:22.917Z,11.20
2017-10-01T20:46:51.235Z,7.73
2017-10-01T20:49:18.850Z,8.20
2017-10-01T20:51:46.608Z,4.70
2017-10-01T20:54:14.210Z,8.00
2017-10-01T20:56:41.886Z,7.43
2017-10-01T20:59:09.574Z,10.37
2017-10-01T21:01:37.317Z,7.17
2017-10-01T21:04:04.913Z,6.50
2017-10-01T21:06:33.234Z,7.17
2017-10-01T21:09:01.662Z,9.70
2017-10-01T21:11:29.242Z,12.37
2017-10-01T21:13:56.834Z,5.30
2017-10-01T21:16:25.286Z,8.07
2017-10-01T21:18:52.865Z,11.73
2017-10-01T21:21:21.689Z,14.90
2017-10-01T21:23:49.352Z,13.87
2017-10-01T21:26:16.954Z,6.13
2017-10-01T21:28:44.621Z,7.03
2017-10-01T21:31:12.217Z,10.07
2017-10-01T21:33:40.619Z,8.70
2017-10-01T21:36:08.355Z,5.90
2017-10-01T21:38:36.884Z,8.57
2017-10-01T21:41:04.474Z,6.17
2017-10-01T21:43:32.156Z,13.10
2017-10-01T21:45:59.736Z,4.70
2017-10-01T21:48:28.593Z,6.67
2017-10-01T21:50:56.374Z,9.10
2017-10-01T21:53:24.159Z,8.57
2017-10-01T21:55:52.646Z,7.60
2017-10-01T21:58:21.090Z,6.20
2017-10-01T22:00:48.803Z,9.20
2017-10-01T22:03:16.379Z,8.33
2017-10-01T22:05:44.065Z,5.37
2017-10-01T22:08:11.716Z,6.67
2017-10-01T22:10:39.315Z,5.37
2017-10-01T22:13:06.917Z,14.83
2017-10-01T22:15:34.537Z,7.77
2017-10-01T22:18:02.136Z,6.23
2017-10-01T22:20:30.505Z,7.30
2017-10-01T22:22:58.931Z,9.53
2017-10-01T22:25:26.497Z,15.97
2017-10-01T22:27:54.091Z,5.33
2017-10-01T22:30:21.653Z,16.93
2017-10-01T22:32:49.994Z,10.03
2017-10-01T22:35:17.576Z,5.13
2017-10-01T22:37:45.167Z,8.90
2017-10-01T22:40:12.884Z,7.40
2017-10-01T22:42:40.588Z,4.90
2017-10-01T22:45:08.198Z,7.00
2017-10-01T22:47:35.840Z,7.33
2017-10-01T22:50:03.547Z,5.87
2017-10-01T22:52:31.199Z,8.30
2017-10-01T22:54:58.785Z,9.93
2017-10-01T22:57:26.429Z,10.33
2017-10-01T22:59:54.050Z,10.60
2017-10-01T23:02:22.654Z,7.10
2017-10-01T23:04:50.209Z,7.30
2017-10-01T23:07:17.823Z,8.50
2017-10-01T23:09:45.444Z,4.60
2017-10-01T23:12:13.849Z,6.10
2017-10-01T23:14:41.566Z,7.57
2017-10-01T23:17:09.959Z,5.83
2017-10-01T23:19:38.326Z,5.80
2017-10-01T23:22:06.826Z,5.57
2017-10-01T23:24:35.287Z,7.60
2017-10-01T23:27:02.969Z,4.60
2017-10-01T23:29:31.339Z,6.70
2017-10-01T23:31:59.677Z,6.67
2017-10-01T23:34:27.273Z,6.50
2017-10-01T23:36:55.611Z,7.20
2017-10-01T23:39:23.941Z,9.93
2017-10-01T23:41:52.414Z,9.93
2017-10-01T23:44:20.879Z,6.37
2017-10-01T23:46:49.443Z,5.23
2017-10-01T23:49:17.218Z,5.40
2017-10-01T23:51:46.421Z,5.00
2017-10-01T23:54:15.032Z,7.60
2017-10-01T23:56:42.707Z,8.83
2017-10-01T23:59:10.340Z,3.83
